createdAt,value
2023-03-12T00:00:54.626Z,2.26
2023-03-12T00:03:22.139Z,2.28
2023-03-12T00:05:49.327Z,2.37
2023-03-12T00:08:16.483Z,2.11
2023-03-12T00:10:43.974Z,2.14
2023-03-12T00:13:11.144Z,2.25
2023-03-12T00:15:39.395Z,2.45
2023-03-12T00:18:07.049Z,2.20
2023-03-12T00:20:34.229Z,2.20
2023-03-12T00:23:01.446Z,2.33
2023-03-12T00:25:28.973Z,2.48
2023-03-12T00:27:56.243Z,2.57
2023-03-12T00:30:23.362Z,2.57
2023-03-12T00:32:50.817Z,2.77
2023-03-12T00:35:18.094Z,2.86
2023-03-12T00:37:45.179Z,2.98
2023-03-12T00:40:13.752Z,2.79
2023-03-12T00:42:40.903Z,2.72
2023-03-12T00:45:08.393Z,2.66
2023-03-12T00:47:35.848Z,2.63
2023-03-12T00:50:03.446Z,2.66
2023-03-12T00:52:30.587Z,2.57
2023-03-12T00:54:58.934Z,2.59
2023-03-12T00:57:26.321Z,2.63
2023-03-12T00:59:53.533Z,2.67
2023-03-12T01:02:21.393Z,2.71
2023-03-12T01:04:48.552Z,2.72
2023-03-12T01:07:15.588Z,2.50
2023-03-12T01:09:43.021Z,2.44
2023-03-12T01:12:10.284Z,2.38
2023-03-12T01:14:37.419Z,2.48
2023-03-12T01:17:04.813Z,2.27
2023-03-12T01:19:31.950Z,2.11
2023-03-12T01:21:59.142Z,2.07
2023-03-12T01:24:26.582Z,2.09
2023-03-12T01:26:53.671Z,2.13
2023-03-12T01:29:20.875Z,2.12
2023-03-12T01:31:48.496Z,2.10
2023-03-12T01:34:15.654Z,1.99
2023-03-12T01:36:42.923Z,2.07
2023-03-12T01:39:10.457Z,2.03
2023-03-12T01:41:37.753Z,2.12
2023-03-12T01:44:05.075Z,2.12
2023-03-12T01:46:43.301Z,2.06
2023-03-12T01:49:30.023Z,2.14
2023-03-12T01:51:57.481Z,2.21
2023-03-12T01:54:35.031Z,2.28
2023-03-12T01:57:04.434Z,2.14
2023-03-12T01:59:37.104Z,2.09
2023-03-12T02:02:05.668Z,2.05
2023-03-12T02:04:33.398Z,1.96
2023-03-12T02:07:14.651Z,1.98
2023-03-12T02:09:44.024Z,1.90
2023-03-12T02:12:11.245Z,1.86
2023-03-12T02:14:38.757Z,1.91
2023-03-12T02:17:06.840Z,1.98
2023-03-12T02:19:52.404Z,2.05
2023-03-12T02:22:21.110Z,2.06
2023-03-12T02:24:54.335Z,2.07
2023-03-12T02:27:22.538Z,2.14
2023-03-12T02:29:50.054Z,1.96
2023-03-12T02:32:23.597Z,1.66
2023-03-12T02:34:51.073Z,1.75
2023-03-12T02:37:19.164Z,1.74
2023-03-12T02:40:14.389Z,1.76
2023-03-12T02:42:41.690Z,1.74
2023-03-12T02:45:09.573Z,1.82
2023-03-12T02:47:37.264Z,1.73
2023-03-12T02:50:05.477Z,1.72
2023-03-12T02:52:35.628Z,1.62
2023-03-12T02:55:02.996Z,1.73
2023-03-12T02:57:30.447Z,1.57
2023-03-12T02:59:57.622Z,1.48
2023-03-12T03:02:24.785Z,1.48
2023-03-12T03:04:52.306Z,1.55
2023-03-12T03:07:19.533Z,1.58
2023-03-12T03:09:46.710Z,1.54
2023-03-12T03:12:14.087Z,1.56
2023-03-12T03:14:41.906Z,1.57
2023-03-12T03:17:09.064Z,1.55
2023-03-12T03:19:36.427Z,1.45
2023-03-12T03:22:04.180Z,1.49
2023-03-12T03:24:31.444Z,1.42
2023-03-12T03:26:58.844Z,1.28
2023-03-12T03:29:25.923Z,1.21
2023-03-12T03:31:53.614Z,1.17
2023-03-12T03:34:21.232Z,1.19
2023-03-12T03:36:48.321Z,1.19
2023-03-12T03:39:15.641Z,1.13
2023-03-12T03:41:43.153Z,1.02
2023-03-12T03:44:10.448Z,1.00
2023-03-12T03:46:37.793Z,1.13
2023-03-12T03:49:06.348Z,1.12
2023-03-12T03:51:33.555Z,1.05
2023-03-12T03:54:01.180Z,1.03
2023-03-12T03:56:29.012Z,0.89
2023-03-12T03:58:58.204Z,0.91
2023-03-12T04:01:26.429Z,1.13
2023-03-12T04:03:55.523Z,1.00
2023-03-12T04:06:22.725Z,1.14
2023-03-12T04:08:49.878Z,1.05
2023-03-12T04:11:20.674Z,0.88
2023-03-12T04:13:48.816Z,0.96
2023-03-12T04:16:17.493Z,0.92
2023-03-12T04:18:45.191Z,0.87
2023-03-12T04:21:13.953Z,0.75
2023-03-12T04:23:41.502Z,0.62
2023-03-12T04:26:09.562Z,0.64
2023-03-12T04:28:37.219Z,0.70
2023-03-12T04:31:08.804Z,0.68
2023-03-12T04:33:38.239Z,0.60
2023-03-12T04:36:06.514Z,0.49
2023-03-12T04:38:34.416Z,0.50
2023-03-12T04:41:08.209Z,0.58
2023-03-12T04:43:36.126Z,0.59
2023-03-12T04:46:03.978Z,0.54
2023-03-12T04:48:31.150Z,0.58
2023-03-12T04:50:58.417Z,0.64
2023-03-12T04:53:26.056Z,0.51
2023-03-12T04:55:53.604Z,0.52
2023-03-12T04:58:21.370Z,0.65
2023-03-12T05:00:50.375Z,0.67
2023-03-12T05:03:18.368Z,0.64
2023-03-12T05:05:45.799Z,0.56
2023-03-12T05:08:13.645Z,0.55
2023-03-12T05:10:40.913Z,0.57
2023-03-12T05:13:19.410Z,0.64
2023-03-12T05:15:47.684Z,0.60
2023-03-12T05:18:15.298Z,0.58
2023-03-12T05:20:42.501Z,0.60
2023-03-12T05:23:10.322Z,0.59
2023-03-12T05:25:41.369Z,0.50
2023-03-12T05:28:08.828Z,0.59
2023-03-12T05:30:36.792Z,0.55
2023-03-12T05:33:04.091Z,0.58
2023-03-12T05:35:31.835Z,0.57
2023-03-12T05:37:59.356Z,0.57
2023-03-12T05:40:26.474Z,0.64
2023-03-12T05:42:53.796Z,0.77
2023-03-12T05:45:21.596Z,0.79
2023-03-12T05:47:49.397Z,0.76
2023-03-12T05:52:44.802Z,0.91
2023-03-12T05:55:12.374Z,0.93
2023-03-12T05:57:39.563Z,0.94
2023-03-12T06:00:08.022Z,0.97
2023-03-12T06:02:40.424Z,0.93
2023-03-12T06:05:10.611Z,0.93
2023-03-12T06:07:38.014Z,0.97
2023-03-12T06:10:05.656Z,1.14
2023-03-12T06:12:33.284Z,1.21
2023-03-12T06:15:00.985Z,1.22
2023-03-12T06:17:29.929Z,1.12
2023-03-12T06:19:57.860Z,1.26
2023-03-12T06:22:25.490Z,1.30
2023-03-12T06:24:52.632Z,1.39
2023-03-12T06:27:20.130Z,1.35
2023-03-12T06:29:47.257Z,1.31
2023-03-12T06:32:18.485Z,1.46
2023-03-12T06:34:45.993Z,1.60
2023-03-12T06:37:13.101Z,1.68
2023-03-12T06:39:40.274Z,1.71
2023-03-12T06:42:07.950Z,1.44
2023-03-12T06:44:35.062Z,1.45
2023-03-12T06:47:02.126Z,1.29
2023-03-12T06:49:32.249Z,1.56
2023-03-12T06:51:59.429Z,1.47
2023-03-12T06:54:26.895Z,1.59
2023-03-12T06:56:54.318Z,1.81
2023-03-12T06:59:22.077Z,1.93
2023-03-12T07:01:49.404Z,1.82
2023-03-12T07:04:16.900Z,1.61
2023-03-12T07:06:44.154Z,1.43
2023-03-12T07:09:11.236Z,1.56
2023-03-12T07:11:38.613Z,1.83
2023-03-12T07:14:05.737Z,2.06
2023-03-12T07:16:32.895Z,2.16
2023-03-12T07:19:00.659Z,2.22
2023-03-12T07:21:28.883Z,2.24
2023-03-12T07:23:55.916Z,2.20
2023-03-12T07:26:23.660Z,2.37
2023-03-12T07:28:50.727Z,2.39
2023-03-12T07:31:17.832Z,2.28
2023-03-12T07:33:45.397Z,2.51
2023-03-12T07:36:12.730Z,2.51
2023-03-12T07:38:39.922Z,2.62
2023-03-12T07:41:07.309Z,2.75
2023-03-12T07:43:34.408Z,2.77
2023-03-12T07:46:01.726Z,2.83
2023-03-12T07:48:29.400Z,2.72
2023-03-12T07:50:56.531Z,2.50
2023-03-12T07:53:23.605Z,2.53
2023-03-12T07:55:51.212Z,2.70
2023-03-12T07:58:18.487Z,2.80
2023-03-12T08:00:45.711Z,2.83
2023-03-12T08:03:13.771Z,2.70
2023-03-12T08:05:41.653Z,2.69
2023-03-12T08:08:09.278Z,2.83
2023-03-12T08:10:37.183Z,3.00
2023-03-12T08:13:04.488Z,2.87
2023-03-12T08:15:31.754Z,3.02
2023-03-12T08:17:59.690Z,3.02
2023-03-12T08:20:26.924Z,3.00
2023-03-12T08:22:54.112Z,2.71
2023-03-12T08:25:21.690Z,2.79
2023-03-12T08:27:48.861Z,3.04
2023-03-12T08:30:19.155Z,3.13
2023-03-12T08:32:46.759Z,3.09
2023-03-12T08:35:13.877Z,3.02
2023-03-12T08:37:41.574Z,3.08
2023-03-12T08:40:13.258Z,3.27
2023-03-12T08:42:41.982Z,3.42
2023-03-12T08:45:11.171Z,3.67
2023-03-12T08:47:41.535Z,3.75
2023-03-12T08:50:11.289Z,3.89
2023-03-12T08:52:38.890Z,3.45
2023-03-12T08:55:06.517Z,3.41
2023-03-12T08:57:33.711Z,3.50
2023-03-12T09:00:01.279Z,3.40
2023-03-12T09:02:28.690Z,3.45
2023-03-12T09:04:55.805Z,3.69
2023-03-12T09:07:23.501Z,3.75
2023-03-12T09:09:50.714Z,3.88
2023-03-12T09:12:18.379Z,3.79
2023-03-12T09:17:32.890Z,3.83
2023-03-12T09:20:00.831Z,4.21
2023-03-12T09:22:30.292Z,4.26
2023-03-12T09:24:57.395Z,4.03
2023-03-12T09:27:24.881Z,4.19
2023-03-12T09:30:00.127Z,4.32
2023-03-12T09:32:28.928Z,4.55
2023-03-12T09:34:56.110Z,4.79
2023-03-12T09:37:24.334Z,4.69
2023-03-12T09:39:52.545Z,4.40
2023-03-12T09:42:25.711Z,4.65
2023-03-12T09:44:55.076Z,4.88
2023-03-12T09:47:32.000Z,4.72
2023-03-12T09:50:02.050Z,4.92
2023-03-12T09:52:50.617Z,4.94
2023-03-12T09:55:20.440Z,4.88
2023-03-12T09:57:51.278Z,4.89
2023-03-12T10:00:21.953Z,4.88
2023-03-12T10:03:23.707Z,4.88
2023-03-12T10:06:12.155Z,4.97
2023-03-12T10:09:01.257Z,5.30
2023-03-12T10:11:33.015Z,5.30
2023-03-12T10:14:23.732Z,5.59
2023-03-12T10:17:03.338Z,5.79
2023-03-12T10:19:52.222Z,5.91
2023-03-12T10:22:37.208Z,6.11
2023-03-12T10:25:07.583Z,6.30
2023-03-12T10:27:37.169Z,6.37
2023-03-12T10:30:24.362Z,6.37
2023-03-12T10:32:58.546Z,6.03
2023-03-12T10:35:26.918Z,5.94
2023-03-12T10:37:54.300Z,6.21
2023-03-12T10:40:27.996Z,6.31
2023-03-12T10:42:55.667Z,6.39
2023-03-12T10:45:30.808Z,6.63
2023-03-12T10:48:08.679Z,6.76
2023-03-12T10:50:40.555Z,6.74
2023-03-12T10:53:24.636Z,6.78
2023-03-12T10:55:58.749Z,6.90
2023-03-12T10:58:26.342Z,6.99
2023-03-12T11:00:58.797Z,6.89
2023-03-12T11:03:26.309Z,6.81
2023-03-12T11:05:55.694Z,6.97
2023-03-12T11:08:37.106Z,6.55
2023-03-12T11:11:05.564Z,6.60
2023-03-12T11:13:40.816Z,7.02
2023-03-12T11:16:17.274Z,7.21
2023-03-12T11:18:59.947Z,7.30
2023-03-12T11:21:28.624Z,7.48
2023-03-12T11:23:58.761Z,7.45
2023-03-12T11:26:50.091Z,7.44
2023-03-12T11:29:26.672Z,7.51
2023-03-12T11:32:17.379Z,7.51
2023-03-12T11:34:49.381Z,7.41
2023-03-12T11:37:53.721Z,7.19
2023-03-12T11:40:33.320Z,7.40
2023-03-12T11:43:24.078Z,7.45
2023-03-12T11:46:07.891Z,7.62
2023-03-12T11:48:46.689Z,7.83
2023-03-12T11:51:37.857Z,7.99
2023-03-12T11:54:14.062Z,7.86
2023-03-12T11:56:52.032Z,7.93
2023-03-12T11:59:40.137Z,7.95
2023-03-12T12:02:39.355Z,7.82
2023-03-12T12:05:22.626Z,7.81
2023-03-12T12:08:11.734Z,7.66
2023-03-12T12:11:13.209Z,7.86
2023-03-12T12:14:19.047Z,8.21
2023-03-12T12:16:56.050Z,8.23
2023-03-12T12:19:29.876Z,8.21
2023-03-12T12:22:03.284Z,8.18
2023-03-12T12:24:55.102Z,8.24
2023-03-12T12:27:26.542Z,8.15
2023-03-12T12:30:22.282Z,8.22
2023-03-12T12:33:09.330Z,8.37
2023-03-12T12:35:40.905Z,8.41
2023-03-12T12:38:30.276Z,8.09
2023-03-12T12:41:08.319Z,7.99
2023-03-12T12:43:39.732Z,8.19
2023-03-12T12:46:29.114Z,8.15
2023-03-12T12:49:00.943Z,8.36
2023-03-12T12:51:33.935Z,8.51
2023-03-12T12:54:20.190Z,8.34
2023-03-12T12:56:59.293Z,8.39
2023-03-12T12:59:50.565Z,8.43
2023-03-12T13:02:20.936Z,8.47
2023-03-12T13:04:48.964Z,8.58
2023-03-12T13:07:16.051Z,8.75
2023-03-12T13:09:46.007Z,8.87
2023-03-12T13:12:22.326Z,8.89
2023-03-12T13:14:50.718Z,8.92
2023-03-12T13:17:56.186Z,8.75
2023-03-12T13:20:47.259Z,8.66
2023-03-12T13:23:26.758Z,8.47
2023-03-12T13:26:20.794Z,8.20
2023-03-12T13:29:05.991Z,8.12
2023-03-12T13:31:39.029Z,8.44
2023-03-12T13:34:06.488Z,8.79
2023-03-12T13:36:36.653Z,8.78
2023-03-12T13:39:06.516Z,8.49
2023-03-12T13:41:40.716Z,8.57
2023-03-12T13:44:22.978Z,8.74
2023-03-12T13:47:02.521Z,8.84
2023-03-12T13:49:41.728Z,8.88
2023-03-12T13:52:25.506Z,9.04
2023-03-12T13:55:14.668Z,9.12
2023-03-12T13:57:47.940Z,9.14
2023-03-12T14:00:28.188Z,9.21
2023-03-12T14:03:00.661Z,9.42
2023-03-12T14:05:29.091Z,9.60
2023-03-12T14:08:02.469Z,9.59
2023-03-12T14:10:47.989Z,9.25
2023-03-12T14:13:28.827Z,9.21
2023-03-12T14:16:32.225Z,9.50
2023-03-12T14:18:59.931Z,9.46
2023-03-12T14:21:33.497Z,9.51
2023-03-12T14:24:01.871Z,9.29
2023-03-12T14:26:33.206Z,9.29
2023-03-12T14:29:04.615Z,9.45
2023-03-12T14:31:32.268Z,9.52
2023-03-12T14:34:02.043Z,9.53
2023-03-12T14:36:38.227Z,9.50
2023-03-12T14:39:41.737Z,9.64
2023-03-12T14:42:10.058Z,9.84
2023-03-12T14:44:39.447Z,9.58
2023-03-12T14:47:10.229Z,9.36
2023-03-12T14:49:45.903Z,9.21
2023-03-12T14:52:14.839Z,9.04
2023-03-12T14:54:53.998Z,9.07
2023-03-12T14:57:25.095Z,9.07
2023-03-12T14:59:57.068Z,9.11
2023-03-12T15:02:25.277Z,9.09
2023-03-12T15:04:55.583Z,8.90
2023-03-12T15:07:31.521Z,8.80
2023-03-12T15:09:59.012Z,8.69
2023-03-12T15:12:29.785Z,8.53
2023-03-12T15:15:03.065Z,8.57
2023-03-12T15:17:31.850Z,8.46
2023-03-12T15:19:59.450Z,8.58
2023-03-12T15:22:27.897Z,8.67
2023-03-12T15:24:55.379Z,8.71
2023-03-12T15:27:28.704Z,8.66
2023-03-12T15:29:58.076Z,8.69
2023-03-12T15:32:26.356Z,8.75
2023-03-12T15:34:56.481Z,8.78
2023-03-12T15:37:34.917Z,8.76
2023-03-12T15:40:06.614Z,8.70
2023-03-12T15:42:46.923Z,8.63
2023-03-12T15:45:26.353Z,8.63
2023-03-12T15:47:54.334Z,8.66
2023-03-12T15:50:34.338Z,8.50
2023-03-12T15:53:26.515Z,8.43
2023-03-12T15:55:59.117Z,8.30
2023-03-12T15:58:34.622Z,8.25
2023-03-12T16:01:13.321Z,8.16
2023-03-12T16:03:42.523Z,8.19
2023-03-12T16:06:15.118Z,8.09
2023-03-12T16:08:51.110Z,7.98
2023-03-12T16:11:24.155Z,7.89
2023-03-12T16:13:54.897Z,7.77
2023-03-12T16:16:22.019Z,7.59
2023-03-12T16:18:49.166Z,7.47
2023-03-12T16:21:16.558Z,7.36
2023-03-12T16:23:43.631Z,7.27
2023-03-12T16:26:11.958Z,7.05
2023-03-12T16:28:39.780Z,6.93
2023-03-12T16:31:16.403Z,6.81
2023-03-12T16:33:44.864Z,6.63
2023-03-12T16:36:14.084Z,6.51
2023-03-12T16:38:42.112Z,6.38
2023-03-12T16:41:28.771Z,6.24
2023-03-12T16:43:56.863Z,6.06
2023-03-12T16:46:27.304Z,5.94
2023-03-12T16:48:54.557Z,5.84
2023-03-12T16:51:22.130Z,5.75
2023-03-12T16:54:05.312Z,5.63
2023-03-12T16:56:35.058Z,5.51
2023-03-12T16:59:06.194Z,5.37
2023-03-12T17:01:33.374Z,5.28
2023-03-12T17:04:00.671Z,5.15
2023-03-12T17:06:28.140Z,5.09
2023-03-12T17:08:55.372Z,5.02
2023-03-12T17:11:25.325Z,4.94
2023-03-12T17:13:58.700Z,4.83
2023-03-12T17:16:25.973Z,4.76
2023-03-12T17:18:53.739Z,4.64
2023-03-12T17:21:21.659Z,4.54
2023-03-12T17:23:50.457Z,4.44
2023-03-12T17:26:18.639Z,4.49
2023-03-12T17:28:45.737Z,4.39
2023-03-12T17:31:12.965Z,4.26
2023-03-12T17:33:40.423Z,4.27
2023-03-12T17:36:09.298Z,4.20
2023-03-12T17:38:36.658Z,4.13
2023-03-12T17:41:09.364Z,4.09
2023-03-12T17:43:41.827Z,4.09
2023-03-12T17:46:09.818Z,4.19
2023-03-12T17:48:37.016Z,4.11
2023-03-12T17:51:09.971Z,3.98
2023-03-12T17:53:39.541Z,3.88
2023-03-12T17:56:07.443Z,3.88
2023-03-12T17:58:34.540Z,3.91
2023-03-12T18:01:02.058Z,3.89
2023-03-12T18:03:29.693Z,3.81
2023-03-12T18:05:56.874Z,3.67
2023-03-12T18:08:23.946Z,3.60
2023-03-12T18:10:51.349Z,3.58
2023-03-12T18:13:18.517Z,3.57
2023-03-12T18:15:54.296Z,3.50
2023-03-12T18:18:22.468Z,3.41
2023-03-12T18:20:49.973Z,3.38
2023-03-12T18:23:17.508Z,3.34
2023-03-12T18:25:46.084Z,3.26
2023-03-12T18:28:14.131Z,3.19
2023-03-12T18:30:41.296Z,3.27
2023-03-12T18:33:08.698Z,3.30
2023-03-12T18:35:35.864Z,3.28
2023-03-12T18:38:02.998Z,3.21
2023-03-12T18:40:32.787Z,3.24
2023-03-12T18:43:00.435Z,3.28
2023-03-12T18:45:27.972Z,3.15
2023-03-12T18:47:55.759Z,3.10
2023-03-12T18:50:22.950Z,3.00
2023-03-12T18:52:50.062Z,2.83
2023-03-12T18:55:17.723Z,2.77
2023-03-12T18:57:47.198Z,2.70
2023-03-12T19:00:17.717Z,2.67
2023-03-12T19:02:48.415Z,2.58
2023-03-12T19:05:16.449Z,2.46
2023-03-12T19:07:44.028Z,2.43
2023-03-12T19:10:12.299Z,2.43
2023-03-12T19:12:51.661Z,2.31
2023-03-12T19:15:21.308Z,2.27
2023-03-12T19:17:48.408Z,2.32
2023-03-12T19:20:15.731Z,2.30
2023-03-12T19:22:43.684Z,2.37
2023-03-12T19:25:10.823Z,2.44
2023-03-12T19:27:37.871Z,2.44
2023-03-12T19:30:05.858Z,2.47
2023-03-12T19:32:42.335Z,2.34
2023-03-12T19:35:12.201Z,2.25
2023-03-12T19:37:39.302Z,2.20
2023-03-12T19:40:07.131Z,2.27
2023-03-12T19:42:34.521Z,2.28
2023-03-12T19:45:01.632Z,2.26
2023-03-12T19:47:28.919Z,2.32
2023-03-12T19:49:56.310Z,2.39
2023-03-12T19:52:23.622Z,2.49
2023-03-12T19:55:03.418Z,2.40
2023-03-12T19:57:32.682Z,2.38
2023-03-12T19:59:59.841Z,2.27
2023-03-12T20:02:27.165Z,2.29
2023-03-12T20:04:55.438Z,2.28
2023-03-12T20:07:22.800Z,2.21
2023-03-12T20:09:50.196Z,2.25
2023-03-12T20:12:17.567Z,2.20
2023-03-12T20:14:44.887Z,2.20
2023-03-12T20:17:12.318Z,2.26
2023-03-12T20:19:39.914Z,2.22
2023-03-12T20:22:07.516Z,2.17
2023-03-12T20:24:35.279Z,2.18
2023-03-12T20:27:03.856Z,2.12
2023-03-12T20:29:30.971Z,2.14
2023-03-12T20:31:58.168Z,2.10
2023-03-12T20:34:25.874Z,2.06
2023-03-12T20:36:52.966Z,2.01
2023-03-12T20:39:20.130Z,1.99
2023-03-12T20:41:49.132Z,2.04
2023-03-12T20:44:16.987Z,1.94
2023-03-12T20:46:44.455Z,2.06
2023-03-12T20:49:11.941Z,2.17
2023-03-12T20:51:40.562Z,2.20
2023-03-12T20:54:07.668Z,2.18
2023-03-12T20:56:35.574Z,2.18
2023-03-12T20:59:02.712Z,2.25
2023-03-12T21:01:29.940Z,2.29
2023-03-12T21:03:57.872Z,2.20
2023-03-12T21:06:25.264Z,2.03
2023-03-12T21:08:52.333Z,1.94
2023-03-12T21:11:19.749Z,1.78
2023-03-12T21:13:47.009Z,1.76
2023-03-12T21:16:14.248Z,1.75
2023-03-12T21:18:41.813Z,1.81
2023-03-12T21:21:09.289Z,1.87
2023-03-12T21:23:36.857Z,1.92
2023-03-12T21:26:09.070Z,2.04
2023-03-12T21:28:36.611Z,2.18
2023-03-12T21:31:05.913Z,2.18
2023-03-12T21:33:33.429Z,2.35
2023-03-12T21:36:04.079Z,2.47
2023-03-12T21:38:31.681Z,2.61
2023-03-12T21:41:04.953Z,2.84
2023-03-12T21:43:32.415Z,2.87
2023-03-12T21:46:07.106Z,2.84
2023-03-12T21:48:35.327Z,2.85
2023-03-12T21:51:07.177Z,2.88
2023-03-12T21:53:35.633Z,2.88
2023-03-12T21:56:03.874Z,3.01
2023-03-12T21:58:31.917Z,3.12
2023-03-12T22:01:11.369Z,3.36
2023-03-12T22:03:39.751Z,3.48
2023-03-12T22:06:07.506Z,3.42
2023-03-12T22:08:35.312Z,3.42
2023-03-12T22:11:03.319Z,3.38
2023-03-12T22:13:30.654Z,3.42
2023-03-12T22:16:03.354Z,3.47
2023-03-12T22:18:30.866Z,3.48
2023-03-12T22:21:01.180Z,3.49
2023-03-12T22:23:28.651Z,3.53
2023-03-12T22:25:56.515Z,3.55
2023-03-12T22:28:25.629Z,3.62
2023-03-12T22:31:00.941Z,3.69
2023-03-12T22:33:29.054Z,3.79
2023-03-12T22:35:56.792Z,3.88
2023-03-12T22:38:24.211Z,4.00
2023-03-12T22:40:53.166Z,4.14
2023-03-12T22:43:22.218Z,4.25
2023-03-12T22:45:53.782Z,4.17
2023-03-12T22:48:21.207Z,4.27
2023-03-12T22:50:54.761Z,4.17
2023-03-12T22:53:22.306Z,4.34
2023-03-12T22:56:03.476Z,4.42
2023-03-12T22:58:31.088Z,4.34
2023-03-12T23:01:05.923Z,4.41
2023-03-12T23:03:34.807Z,4.45
2023-03-12T23:06:02.597Z,4.68
2023-03-12T23:08:30.451Z,4.71
2023-03-12T23:11:00.045Z,4.67
2023-03-12T23:13:28.772Z,4.68
2023-03-12T23:16:01.459Z,4.88
2023-03-12T23:18:29.163Z,5.14
2023-03-12T23:21:05.318Z,5.29
2023-03-12T23:23:33.158Z,5.35
2023-03-12T23:26:01.354Z,5.26
2023-03-12T23:28:29.505Z,5.22
2023-03-12T23:31:02.075Z,5.40
2023-03-12T23:33:30.218Z,5.55
2023-03-12T23:36:00.388Z,5.46
2023-03-12T23:38:28.876Z,5.55
2023-03-12T23:41:19.932Z,5.71
2023-03-12T23:43:47.911Z,5.76
2023-03-12T23:46:17.125Z,5.63
2023-03-12T23:48:45.677Z,5.58
2023-03-12T23:51:15.787Z,5.53
2023-03-12T23:53:45.365Z,5.65
2023-03-12T23:56:18.128Z,5.75
2023-03-12T23:58:45.888Z,5.83
